sensor_id;sensor_type;location;lat;lon;timestamp;temperature;humidity
6252;DHT22;3159;52.414;9.784;2023-02-28T00:00:50;3.00;99.90
6252;DHT22;3159;52.414;9.784;2023-02-28T00:03:16;3.00;99.90
6252;DHT22;3159;52.414;9.784;2023-02-28T00:05:43;3.00;99.90
6252;DHT22;3159;52.414;9.784;2023-02-28T00:08:10;2.90;99.90
6252;DHT22;3159;52.414;9.784;2023-02-28T00:10:39;3.00;99.90
6252;DHT22;3159;52.414;9.784;2023-02-28T00:13:06;2.90;99.90
6252;DHT22;3159;52.414;9.784;2023-02-28T00:15:33;2.80;99.90
6252;DHT22;3159;52.414;9.784;2023-02-28T00:18:01;2.80;99.90
6252;DHT22;3159;52.414;9.784;2023-02-28T00:20:28;2.80;99.90
6252;DHT22;3159;52.414;9.784;2023-02-28T00:22:55;2.80;99.90
6252;DHT22;3159;52.414;9.784;2023-02-28T00:25:24;2.70;99.90
6252;DHT22;3159;52.414;9.784;2023-02-28T00:27:53;2.70;99.90
6252;DHT22;3159;52.414;9.784;2023-02-28T00:30:21;2.70;99.90
6252;DHT22;3159;52.414;9.784;2023-02-28T00:32:49;2.70;99.90
6252;DHT22;3159;52.414;9.784;2023-02-28T00:35:16;2.60;99.90
6252;DHT22;3159;52.414;9.784;2023-02-28T00:37:43;2.60;99.90
6252;DHT22;3159;52.414;9.784;2023-02-28T00:40:13;2.60;99.90
6252;DHT22;3159;52.414;9.784;2023-02-28T00:42:39;2.50;99.90
6252;DHT22;3159;52.414;9.784;2023-02-28T00:45:08;2.60;99.90
6252;DHT22;3159;52.414;9.784;2023-02-28T00:47:35;2.60;99.90
6252;DHT22;3159;52.414;9.784;2023-02-28T00:50:03;2.50;99.90
6252;DHT22;3159;52.414;9.784;2023-02-28T00:52:30;2.50;99.90
6252;DHT22;3159;52.414;9.784;2023-02-28T00:54:57;2.50;99.90
6252;DHT22;3159;52.414;9.784;2023-02-28T00:57:23;2.30;99.90
6252;DHT22;3159;52.414;9.784;2023-02-28T00:59:50;2.40;99.90
6252;DHT22;3159;52.414;9.784;2023-02-28T01:02:21;2.50;99.90
6252;DHT22;3159;52.414;9.784;2023-02-28T01:04:48;2.40;99.90
6252;DHT22;3159;52.414;9.784;2023-02-28T01:07:15;2.30;99.90
6252;DHT22;3159;52.414;9.784;2023-02-28T01:09:41;2.30;99.90
6252;DHT22;3159;52.414;9.784;2023-02-28T01:12:09;2.30;99.90
6252;DHT22;3159;52.414;9.784;2023-02-28T01:14:35;2.20;99.90
6252;DHT22;3159;52.414;9.784;2023-02-28T01:17:02;2.20;99.90
6252;DHT22;3159;52.414;9.784;2023-02-28T01:19:32;2.20;99.90
6252;DHT22;3159;52.414;9.784;2023-02-28T01:22:01;2.20;99.90
6252;DHT22;3159;52.414;9.784;2023-02-28T01:24:28;2.20;99.90
6252;DHT22;3159;52.414;9.784;2023-02-28T01:26:55;2.20;99.90
6252;DHT22;3159;52.414;9.784;2023-02-28T01:29:21;2.10;99.90
6252;DHT22;3159;52.414;9.784;2023-02-28T01:31:48;2.20;99.90
6252;DHT22;3159;52.414;9.784;2023-02-28T01:34:16;2.20;99.90
6252;DHT22;3159;52.414;9.784;2023-02-28T01:36:45;2.20;99.90
6252;DHT22;3159;52.414;9.784;2023-02-28T01:39:12;2.10;99.90
6252;DHT22;3159;52.414;9.784;2023-02-28T01:41:39;2.00;99.90
6252;DHT22;3159;52.414;9.784;2023-02-28T01:44:53;2.00;99.90
6252;DHT22;3159;52.414;9.784;2023-02-28T01:46:54;2.00;99.90
6252;DHT22;3159;52.414;9.784;2023-02-28T01:49:21;1.90;99.90
6252;DHT22;3159;52.414;9.784;2023-02-28T01:51:50;1.90;99.90
6252;DHT22;3159;52.414;9.784;2023-02-28T01:54:22;1.90;99.90
6252;DHT22;3159;52.414;9.784;2023-02-28T01:56:54;1.90;99.90
6252;DHT22;3159;52.414;9.784;2023-02-28T01:59:24;1.90;99.90
6252;DHT22;3159;52.414;9.784;2023-02-28T02:01:53;1.90;99.90
6252;DHT22;3159;52.414;9.784;2023-02-28T02:04:21;1.80;99.90
6252;DHT22;3159;52.414;9.784;2023-02-28T02:06:52;1.80;99.90
6252;DHT22;3159;52.414;9.784;2023-02-28T02:09:19;1.80;99.90
6252;DHT22;3159;52.414;9.784;2023-02-28T02:11:46;1.80;99.90
6252;DHT22;3159;52.414;9.784;2023-02-28T02:14:31;1.80;99.90
6252;DHT22;3159;52.414;9.784;2023-02-28T02:17:16;1.80;99.90
6252;DHT22;3159;52.414;9.784;2023-02-28T02:25:42;1.60;99.90
6252;DHT22;3159;52.414;9.784;2023-02-28T02:28:36;1.70;99.90
6252;DHT22;3159;52.414;9.784;2023-02-28T02:34:48;1.60;99.90
6252;DHT22;3159;52.414;9.784;2023-02-28T02:37:25;1.50;99.90
6252;DHT22;3159;52.414;9.784;2023-02-28T02:40:00;1.50;99.90
6252;DHT22;3159;52.414;9.784;2023-02-28T02:42:33;1.50;99.90
6252;DHT22;3159;52.414;9.784;2023-02-28T02:45:06;1.50;99.90
6252;DHT22;3159;52.414;9.784;2023-02-28T02:47:35;1.40;99.90
6252;DHT22;3159;52.414;9.784;2023-02-28T02:50:07;1.40;99.90
6252;DHT22;3159;52.414;9.784;2023-02-28T02:52:41;1.40;99.90
6252;DHT22;3159;52.414;9.784;2023-02-28T02:55:12;1.30;99.90
6252;DHT22;3159;52.414;9.784;2023-02-28T02:57:45;1.30;99.90
6252;DHT22;3159;52.414;9.784;2023-02-28T03:00:16;1.40;99.90
6252;DHT22;3159;52.414;9.784;2023-02-28T03:02:45;1.40;99.90
6252;DHT22;3159;52.414;9.784;2023-02-28T03:05:19;1.30;99.90
6252;DHT22;3159;52.414;9.784;2023-02-28T03:07:46;1.30;99.90
6252;DHT22;3159;52.414;9.784;2023-02-28T03:10:28;1.20;99.90
6252;DHT22;3159;52.414;9.784;2023-02-28T03:13:03;1.10;99.90
6252;DHT22;3159;52.414;9.784;2023-02-28T03:15:43;1.10;99.90
6252;DHT22;3159;52.414;9.784;2023-02-28T03:18:21;1.20;99.90
6252;DHT22;3159;52.414;9.784;2023-02-28T03:21:00;1.20;99.90
6252;DHT22;3159;52.414;9.784;2023-02-28T03:23:40;1.20;99.90
6252;DHT22;3159;52.414;9.784;2023-02-28T03:26:16;1.20;99.90
6252;DHT22;3159;52.414;9.784;2023-02-28T03:28:51;1.10;99.90
6252;DHT22;3159;52.414;9.784;2023-02-28T03:31:21;1.10;99.90
6252;DHT22;3159;52.414;9.784;2023-02-28T03:33:53;1.00;99.90
6252;DHT22;3159;52.414;9.784;2023-02-28T03:36:26;1.00;99.90
6252;DHT22;3159;52.414;9.784;2023-02-28T03:38:57;1.10;99.90
6252;DHT22;3159;52.414;9.784;2023-02-28T03:41:31;1.10;99.90
6252;DHT22;3159;52.414;9.784;2023-02-28T03:44:03;1.00;99.90
6252;DHT22;3159;52.414;9.784;2023-02-28T03:46:35;1.00;99.90
6252;DHT22;3159;52.414;9.784;2023-02-28T03:49:07;0.90;99.90
6252;DHT22;3159;52.414;9.784;2023-02-28T03:51:37;1.00;99.90
6252;DHT22;3159;52.414;9.784;2023-02-28T03:54:08;0.90;99.90
6252;DHT22;3159;52.414;9.784;2023-02-28T03:56:39;0.90;99.90
6252;DHT22;3159;52.414;9.784;2023-02-28T03:59:13;0.90;99.90
6252;DHT22;3159;52.414;9.784;2023-02-28T04:01:42;0.80;99.90
6252;DHT22;3159;52.414;9.784;2023-02-28T04:04:10;0.80;99.90
6252;DHT22;3159;52.414;9.784;2023-02-28T04:06:39;0.80;99.90
6252;DHT22;3159;52.414;9.784;2023-02-28T04:09:09;0.70;99.90
6252;DHT22;3159;52.414;9.784;2023-02-28T04:11:38;0.80;99.90
6252;DHT22;3159;52.414;9.784;2023-02-28T04:14:06;0.80;99.90
6252;DHT22;3159;52.414;9.784;2023-02-28T04:16:35;0.80;99.90
6252;DHT22;3159;52.414;9.784;2023-02-28T04:19:03;0.80;99.90
6252;DHT22;3159;52.414;9.784;2023-02-28T04:21:32;0.70;99.90
6252;DHT22;3159;52.414;9.784;2023-02-28T04:24:00;0.80;99.90
6252;DHT22;3159;52.414;9.784;2023-02-28T04:26:28;0.70;99.90
6252;DHT22;3159;52.414;9.784;2023-02-28T04:28:56;0.70;99.90
6252;DHT22;3159;52.414;9.784;2023-02-28T04:31:23;0.70;99.90
6252;DHT22;3159;52.414;9.784;2023-02-28T04:33:49;0.70;99.90
6252;DHT22;3159;52.414;9.784;2023-02-28T04:36:17;0.70;99.90
6252;DHT22;3159;52.414;9.784;2023-02-28T04:38:45;0.60;99.90
6252;DHT22;3159;52.414;9.784;2023-02-28T04:41:13;0.60;99.90
6252;DHT22;3159;52.414;9.784;2023-02-28T04:43:40;0.50;99.90
6252;DHT22;3159;52.414;9.784;2023-02-28T04:46:07;0.50;99.90
6252;DHT22;3159;52.414;9.784;2023-02-28T04:48:36;0.30;99.90
6252;DHT22;3159;52.414;9.784;2023-02-28T04:51:05;0.40;99.90
6252;DHT22;3159;52.414;9.784;2023-02-28T04:53:32;0.40;99.90
6252;DHT22;3159;52.414;9.784;2023-02-28T04:55:59;0.40;99.90
6252;DHT22;3159;52.414;9.784;2023-02-28T04:58:27;0.30;99.90
6252;DHT22;3159;52.414;9.784;2023-02-28T05:01:01;0.20;99.90
6252;DHT22;3159;52.414;9.784;2023-02-28T05:03:28;0.30;99.90
6252;DHT22;3159;52.414;9.784;2023-02-28T05:05:55;0.30;99.90
6252;DHT22;3159;52.414;9.784;2023-02-28T05:08:22;0.40;99.90
6252;DHT22;3159;52.414;9.784;2023-02-28T05:10:49;0.40;99.90
6252;DHT22;3159;52.414;9.784;2023-02-28T05:13:15;0.40;99.90
6252;DHT22;3159;52.414;9.784;2023-02-28T05:15:43;0.40;99.90
6252;DHT22;3159;52.414;9.784;2023-02-28T05:18:10;0.20;99.90
6252;DHT22;3159;52.414;9.784;2023-02-28T05:20:37;0.20;99.90
6252;DHT22;3159;52.414;9.784;2023-02-28T05:23:04;0.10;99.90
6252;DHT22;3159;52.414;9.784;2023-02-28T05:25:31;0.10;99.90
6252;DHT22;3159;52.414;9.784;2023-02-28T05:27:57;0.00;99.90
6252;DHT22;3159;52.414;9.784;2023-02-28T05:30:24;0.10;99.90
6252;DHT22;3159;52.414;9.784;2023-02-28T05:32:52;0.00;99.90
6252;DHT22;3159;52.414;9.784;2023-02-28T05:35:19;0.10;99.90
6252;DHT22;3159;52.414;9.784;2023-02-28T05:37:46;0.00;99.90
6252;DHT22;3159;52.414;9.784;2023-02-28T05:40:13;0.10;99.90
6252;DHT22;3159;52.414;9.784;2023-02-28T05:42:41;0.00;99.90
6252;DHT22;3159;52.414;9.784;2023-02-28T05:45:08;0.10;99.90
6252;DHT22;3159;52.414;9.784;2023-02-28T05:47:35;0.10;99.90
6252;DHT22;3159;52.414;9.784;2023-02-28T05:50:05;-0.30;99.90
6252;DHT22;3159;52.414;9.784;2023-02-28T05:52:32;-0.40;99.90
6252;DHT22;3159;52.414;9.784;2023-02-28T05:54:59;-0.40;99.90
6252;DHT22;3159;52.414;9.784;2023-02-28T05:57:25;-0.50;99.90
6252;DHT22;3159;52.414;9.784;2023-02-28T05:59:52;-0.40;99.90
6252;DHT22;3159;52.414;9.784;2023-02-28T06:02:19;-0.40;99.90
6252;DHT22;3159;52.414;9.784;2023-02-28T06:04:46;-0.40;99.90
6252;DHT22;3159;52.414;9.784;2023-02-28T06:07:14;0.00;99.90
6252;DHT22;3159;52.414;9.784;2023-02-28T06:09:43;0.00;99.90
6252;DHT22;3159;52.414;9.784;2023-02-28T06:12:10;0.10;99.90
6252;DHT22;3159;52.414;9.784;2023-02-28T06:14:36;0.20;99.90
6252;DHT22;3159;52.414;9.784;2023-02-28T06:17:04;0.10;99.90
6252;DHT22;3159;52.414;9.784;2023-02-28T06:19:30;0.10;99.90
6252;DHT22;3159;52.414;9.784;2023-02-28T06:21:57;0.20;99.90
6252;DHT22;3159;52.414;9.784;2023-02-28T06:24:26;0.20;99.90
6252;DHT22;3159;52.414;9.784;2023-02-28T06:26:54;0.20;99.90
6252;DHT22;3159;52.414;9.784;2023-02-28T06:29:21;0.20;99.90
6252;DHT22;3159;52.414;9.784;2023-02-28T06:31:48;0.20;99.90
6252;DHT22;3159;52.414;9.784;2023-02-28T06:34:15;0.20;99.90
6252;DHT22;3159;52.414;9.784;2023-02-28T06:36:42;0.20;99.90
6252;DHT22;3159;52.414;9.784;2023-02-28T06:39:09;0.20;99.90
6252;DHT22;3159;52.414;9.784;2023-02-28T06:41:38;0.20;99.90
6252;DHT22;3159;52.414;9.784;2023-02-28T06:44:05;0.20;99.90
6252;DHT22;3159;52.414;9.784;2023-02-28T06:46:34;0.20;99.90
6252;DHT22;3159;52.414;9.784;2023-02-28T06:49:01;0.20;99.90
6252;DHT22;3159;52.414;9.784;2023-02-28T06:51:27;0.30;99.90
6252;DHT22;3159;52.414;9.784;2023-02-28T06:53:54;0.30;99.90
6252;DHT22;3159;52.414;9.784;2023-02-28T06:56:21;0.20;99.90
6252;DHT22;3159;52.414;9.784;2023-02-28T06:58:50;0.20;99.90
6252;DHT22;3159;52.414;9.784;2023-02-28T07:01:18;0.20;99.90
6252;DHT22;3159;52.414;9.784;2023-02-28T07:03:46;0.50;99.90
6252;DHT22;3159;52.414;9.784;2023-02-28T07:06:17;0.80;99.90
6252;DHT22;3159;52.414;9.784;2023-02-28T07:08:45;1.10;99.90
6252;DHT22;3159;52.414;9.784;2023-02-28T07:11:11;1.20;99.90
6252;DHT22;3159;52.414;9.784;2023-02-28T07:13:38;1.60;99.90
6252;DHT22;3159;52.414;9.784;2023-02-28T07:16:10;1.80;99.90
6252;DHT22;3159;52.414;9.784;2023-02-28T07:18:37;1.90;99.90
6252;DHT22;3159;52.414;9.784;2023-02-28T07:21:05;2.20;99.90
6252;DHT22;3159;52.414;9.784;2023-02-28T07:23:32;2.40;99.90
6252;DHT22;3159;52.414;9.784;2023-02-28T07:25:59;2.40;99.90
6252;DHT22;3159;52.414;9.784;2023-02-28T07:28:26;1.90;99.90
6252;DHT22;3159;52.414;9.784;2023-02-28T07:30:53;2.10;99.90
6252;DHT22;3159;52.414;9.784;2023-02-28T07:33:21;2.10;99.90
6252;DHT22;3159;52.414;9.784;2023-02-28T07:35:49;2.20;99.90
6252;DHT22;3159;52.414;9.784;2023-02-28T07:38:16;2.70;99.90
6252;DHT22;3159;52.414;9.784;2023-02-28T07:40:42;2.80;99.90
6252;DHT22;3159;52.414;9.784;2023-02-28T07:43:09;2.90;99.90
6252;DHT22;3159;52.414;9.784;2023-02-28T07:45:36;2.80;99.90
6252;DHT22;3159;52.414;9.784;2023-02-28T07:48:03;3.10;99.90
6252;DHT22;3159;52.414;9.784;2023-02-28T07:50:31;2.90;99.90
6252;DHT22;3159;52.414;9.784;2023-02-28T07:52:58;3.70;99.90
6252;DHT22;3159;52.414;9.784;2023-02-28T07:55:25;3.50;99.90
6252;DHT22;3159;52.414;9.784;2023-02-28T07:57:52;3.90;99.90
6252;DHT22;3159;52.414;9.784;2023-02-28T08:00:19;4.10;99.90
6252;DHT22;3159;52.414;9.784;2023-02-28T08:02:46;4.10;99.90
6252;DHT22;3159;52.414;9.784;2023-02-28T08:05:13;4.30;99.90
6252;DHT22;3159;52.414;9.784;2023-02-28T08:07:41;4.20;99.90
6252;DHT22;3159;52.414;9.784;2023-02-28T08:10:08;4.10;99.90
6252;DHT22;3159;52.414;9.784;2023-02-28T08:12:35;4.50;99.90
6252;DHT22;3159;52.414;9.784;2023-02-28T08:15:03;4.70;99.90
6252;DHT22;3159;52.414;9.784;2023-02-28T08:17:29;4.70;99.90
6252;DHT22;3159;52.414;9.784;2023-02-28T08:19:56;5.40;99.90
6252;DHT22;3159;52.414;9.784;2023-02-28T08:22:23;5.40;99.90
6252;DHT22;3159;52.414;9.784;2023-02-28T08:24:51;5.80;99.90
6252;DHT22;3159;52.414;9.784;2023-02-28T08:27:18;5.60;99.90
6252;DHT22;3159;52.414;9.784;2023-02-28T08:29:45;5.90;99.90
6252;DHT22;3159;52.414;9.784;2023-02-28T08:32:11;6.30;99.90
6252;DHT22;3159;52.414;9.784;2023-02-28T08:34:39;6.10;99.90
6252;DHT22;3159;52.414;9.784;2023-02-28T08:37:06;6.10;99.90
6252;DHT22;3159;52.414;9.784;2023-02-28T08:39:34;6.30;99.90
6252;DHT22;3159;52.414;9.784;2023-02-28T08:42:02;6.50;99.90
6252;DHT22;3159;52.414;9.784;2023-02-28T08:44:29;6.50;99.90
6252;DHT22;3159;52.414;9.784;2023-02-28T08:46:56;7.00;99.90
6252;DHT22;3159;52.414;9.784;2023-02-28T08:49:23;7.30;99.90
6252;DHT22;3159;52.414;9.784;2023-02-28T08:51:49;7.40;99.90
6252;DHT22;3159;52.414;9.784;2023-02-28T08:54:16;7.70;99.90
6252;DHT22;3159;52.414;9.784;2023-02-28T08:56:45;7.80;99.90
6252;DHT22;3159;52.414;9.784;2023-02-28T08:59:14;7.60;99.90
6252;DHT22;3159;52.414;9.784;2023-02-28T09:01:41;7.10;99.90
6252;DHT22;3159;52.414;9.784;2023-02-28T09:04:09;7.70;99.90
6252;DHT22;3159;52.414;9.784;2023-02-28T09:06:37;8.00;99.90
6252;DHT22;3159;52.414;9.784;2023-02-28T09:09:04;7.80;99.90
6252;DHT22;3159;52.414;9.784;2023-02-28T09:11:33;8.00;99.90
6252;DHT22;3159;52.414;9.784;2023-02-28T09:14:00;8.10;99.90
6252;DHT22;3159;52.414;9.784;2023-02-28T09:16:31;7.80;99.90
6252;DHT22;3159;52.414;9.784;2023-02-28T09:18:58;7.90;99.90
6252;DHT22;3159;52.414;9.784;2023-02-28T09:21:26;7.90;99.90
6252;DHT22;3159;52.414;9.784;2023-02-28T09:23:53;8.20;99.90
6252;DHT22;3159;52.414;9.784;2023-02-28T09:26:21;8.40;99.90
6252;DHT22;3159;52.414;9.784;2023-02-28T09:28:48;7.60;99.90
6252;DHT22;3159;52.414;9.784;2023-02-28T09:31:17;7.90;99.90
6252;DHT22;3159;52.414;9.784;2023-02-28T09:33:47;8.60;99.90
6252;DHT22;3159;52.414;9.784;2023-02-28T09:36:14;8.20;99.90
6252;DHT22;3159;52.414;9.784;2023-02-28T09:38:41;8.00;99.90
6252;DHT22;3159;52.414;9.784;2023-02-28T09:41:13;8.30;99.90
6252;DHT22;3159;52.414;9.784;2023-02-28T09:43:43;8.00;99.90
6252;DHT22;3159;52.414;9.784;2023-02-28T09:46:18;8.60;99.90
6252;DHT22;3159;52.414;9.784;2023-02-28T09:48:49;8.70;99.90
6252;DHT22;3159;52.414;9.784;2023-02-28T09:51:29;8.10;99.90
6252;DHT22;3159;52.414;9.784;2023-02-28T09:53:57;8.30;99.90
6252;DHT22;3159;52.414;9.784;2023-02-28T09:56:28;8.60;99.90
6252;DHT22;3159;52.414;9.784;2023-02-28T09:58:58;9.10;99.90
6252;DHT22;3159;52.414;9.784;2023-02-28T10:01:31;9.20;99.90
6252;DHT22;3159;52.414;9.784;2023-02-28T10:04:05;9.20;99.90
6252;DHT22;3159;52.414;9.784;2023-02-28T10:06:39;9.70;99.90
6252;DHT22;3159;52.414;9.784;2023-02-28T10:09:11;9.60;99.90
6252;DHT22;3159;52.414;9.784;2023-02-28T10:11:40;9.40;99.90
6252;DHT22;3159;52.414;9.784;2023-02-28T10:14:13;9.00;99.90
6252;DHT22;3159;52.414;9.784;2023-02-28T10:16:44;9.50;99.90
6252;DHT22;3159;52.414;9.784;2023-02-28T10:19:21;9.60;99.90
6252;DHT22;3159;52.414;9.784;2023-02-28T10:21:55;8.40;99.90
6252;DHT22;3159;52.414;9.784;2023-02-28T10:24:27;9.00;99.90
6252;DHT22;3159;52.414;9.784;2023-02-28T10:27:00;9.60;99.90
6252;DHT22;3159;52.414;9.784;2023-02-28T10:29:27;9.80;99.90
6252;DHT22;3159;52.414;9.784;2023-02-28T10:31:58;9.70;99.90
6252;DHT22;3159;52.414;9.784;2023-02-28T10:34:29;10.20;99.90
6252;DHT22;3159;52.414;9.784;2023-02-28T10:36:56;10.60;99.90
6252;DHT22;3159;52.414;9.784;2023-02-28T10:39:38;10.30;99.90
6252;DHT22;3159;52.414;9.784;2023-02-28T10:42:23;10.30;99.90
6252;DHT22;3159;52.414;9.784;2023-02-28T10:45:05;9.10;99.90
6252;DHT22;3159;52.414;9.784;2023-02-28T10:47:33;9.80;99.90
6252;DHT22;3159;52.414;9.784;2023-02-28T10:50:03;10.10;99.90
6252;DHT22;3159;52.414;9.784;2023-02-28T10:52:36;9.30;99.90
6252;DHT22;3159;52.414;9.784;2023-02-28T10:55:21;9.80;99.90
6252;DHT22;3159;52.414;9.784;2023-02-28T10:57:49;10.10;99.90
6252;DHT22;3159;52.414;9.784;2023-02-28T11:00:19;8.90;99.90
6252;DHT22;3159;52.414;9.784;2023-02-28T11:02:47;9.40;99.90
6252;DHT22;3159;52.414;9.784;2023-02-28T11:05:29;9.30;99.90
6252;DHT22;3159;52.414;9.784;2023-02-28T11:08:02;8.50;99.90
6252;DHT22;3159;52.414;9.784;2023-02-28T11:10:31;8.20;99.90
6252;DHT22;3159;52.414;9.784;2023-02-28T11:13:00;7.80;99.90
6252;DHT22;3159;52.414;9.784;2023-02-28T11:15:29;8.20;99.90
6252;DHT22;3159;52.414;9.784;2023-02-28T11:17:57;8.00;99.90
6252;DHT22;3159;52.414;9.784;2023-02-28T11:20:28;7.70;99.90
6252;DHT22;3159;52.414;9.784;2023-02-28T11:22:57;7.20;99.90
6252;DHT22;3159;52.414;9.784;2023-02-28T11:25:25;7.20;99.90
6252;DHT22;3159;52.414;9.784;2023-02-28T11:27:54;7.30;99.90
6252;DHT22;3159;52.414;9.784;2023-02-28T11:30:32;7.50;99.90
6252;DHT22;3159;52.414;9.784;2023-02-28T11:33:01;7.30;99.90
6252;DHT22;3159;52.414;9.784;2023-02-28T11:35:33;7.70;99.90
6252;DHT22;3159;52.414;9.784;2023-02-28T11:38:01;7.70;99.90
6252;DHT22;3159;52.414;9.784;2023-02-28T11:40:35;7.80;99.90
6252;DHT22;3159;52.414;9.784;2023-02-28T11:43:13;8.30;99.90
6252;DHT22;3159;52.414;9.784;2023-02-28T11:45:55;8.20;99.90
6252;DHT22;3159;52.414;9.784;2023-02-28T11:48:32;7.20;99.90
6252;DHT22;3159;52.414;9.784;2023-02-28T11:51:10;7.40;99.90
6252;DHT22;3159;52.414;9.784;2023-02-28T11:53:52;7.40;99.90
6252;DHT22;3159;52.414;9.784;2023-02-28T11:56:27;7.30;99.90
6252;DHT22;3159;52.414;9.784;2023-02-28T11:59:02;7.10;99.90
6252;DHT22;3159;52.414;9.784;2023-02-28T12:01:40;6.80;99.90
6252;DHT22;3159;52.414;9.784;2023-02-28T12:04:22;6.70;99.90
6252;DHT22;3159;52.414;9.784;2023-02-28T12:06:57;6.60;99.90
6252;DHT22;3159;52.414;9.784;2023-02-28T12:09:37;6.60;99.90
6252;DHT22;3159;52.414;9.784;2023-02-28T12:12:16;6.40;99.90
6252;DHT22;3159;52.414;9.784;2023-02-28T12:14:53;6.30;99.90
6252;DHT22;3159;52.414;9.784;2023-02-28T12:17:38;6.20;99.90
6252;DHT22;3159;52.414;9.784;2023-02-28T12:20:21;6.10;99.90
6252;DHT22;3159;52.414;9.784;2023-02-28T12:22:58;6.00;99.90
6252;DHT22;3159;52.414;9.784;2023-02-28T12:25:47;6.10;99.90
6252;DHT22;3159;52.414;9.784;2023-02-28T12:28:20;6.00;99.90
6252;DHT22;3159;52.414;9.784;2023-02-28T12:30:54;5.80;99.90
6252;DHT22;3159;52.414;9.784;2023-02-28T12:33:28;5.90;99.90
6252;DHT22;3159;52.414;9.784;2023-02-28T12:35:59;6.00;99.90
6252;DHT22;3159;52.414;9.784;2023-02-28T12:38:33;5.90;99.90
6252;DHT22;3159;52.414;9.784;2023-02-28T12:41:03;6.00;99.90
6252;DHT22;3159;52.414;9.784;2023-02-28T12:43:34;6.00;99.90
6252;DHT22;3159;52.414;9.784;2023-02-28T12:46:08;6.10;99.90
6252;DHT22;3159;52.414;9.784;2023-02-28T12:48:40;6.20;99.90
6252;DHT22;3159;52.414;9.784;2023-02-28T12:51:08;6.30;99.90
6252;DHT22;3159;52.414;9.784;2023-02-28T12:53:50;6.40;99.90
6252;DHT22;3159;52.414;9.784;2023-02-28T12:56:24;6.20;99.90
6252;DHT22;3159;52.414;9.784;2023-02-28T12:58:58;6.20;99.90
6252;DHT22;3159;52.414;9.784;2023-02-28T13:01:39;6.20;99.90
6252;DHT22;3159;52.414;9.784;2023-02-28T13:04:27;6.30;99.90
6252;DHT22;3159;52.414;9.784;2023-02-28T13:07:10;6.50;99.90
6252;DHT22;3159;52.414;9.784;2023-02-28T13:09:51;6.70;99.90
6252;DHT22;3159;52.414;9.784;2023-02-28T13:12:19;7.10;99.90
6252;DHT22;3159;52.414;9.784;2023-02-28T13:14:48;7.10;99.90
6252;DHT22;3159;52.414;9.784;2023-02-28T13:17:19;7.40;99.90
6252;DHT22;3159;52.414;9.784;2023-02-28T13:19:56;7.40;99.90
6252;DHT22;3159;52.414;9.784;2023-02-28T13:22:40;8.00;99.90
6252;DHT22;3159;52.414;9.784;2023-02-28T13:34:42;8.60;99.90
6252;DHT22;3159;52.414;9.784;2023-02-28T13:37:35;8.40;99.90
6252;DHT22;3159;52.414;9.784;2023-02-28T13:40:29;8.60;99.90
6252;DHT22;3159;52.414;9.784;2023-02-28T13:43:02;9.40;99.90
6252;DHT22;3159;52.414;9.784;2023-02-28T13:45:30;8.20;99.90
6252;DHT22;3159;52.414;9.784;2023-02-28T13:48:12;8.50;99.90
6252;DHT22;3159;52.414;9.784;2023-02-28T13:50:46;8.70;99.90
6252;DHT22;3159;52.414;9.784;2023-02-28T13:56:29;9.30;99.90
6252;DHT22;3159;52.414;9.784;2023-02-28T13:59:06;9.60;99.90
6252;DHT22;3159;52.414;9.784;2023-02-28T14:01:54;9.90;99.90
6252;DHT22;3159;52.414;9.784;2023-02-28T14:07:30;9.50;99.90
6252;DHT22;3159;52.414;9.784;2023-02-28T14:10:01;9.60;99.90
6252;DHT22;3159;52.414;9.784;2023-02-28T14:12:53;9.80;99.90
6252;DHT22;3159;52.414;9.784;2023-02-28T14:15:40;9.90;99.90
6252;DHT22;3159;52.414;9.784;2023-02-28T14:18:17;10.10;99.90
6252;DHT22;3159;52.414;9.784;2023-02-28T14:20:46;10.00;99.90
6252;DHT22;3159;52.414;9.784;2023-02-28T14:23:23;10.10;99.90
6252;DHT22;3159;52.414;9.784;2023-02-28T14:25:58;10.00;99.90
6252;DHT22;3159;52.414;9.784;2023-02-28T14:29:00;10.10;99.90
6252;DHT22;3159;52.414;9.784;2023-02-28T14:32:10;10.10;99.90
6252;DHT22;3159;52.414;9.784;2023-02-28T14:35:39;10.00;99.90
6252;DHT22;3159;52.414;9.784;2023-02-28T14:42:25;10.30;99.90
6252;DHT22;3159;52.414;9.784;2023-02-28T14:44:58;9.90;99.90
6252;DHT22;3159;52.414;9.784;2023-02-28T14:47:28;9.80;99.90
6252;DHT22;3159;52.414;9.784;2023-02-28T14:50:03;9.80;99.90
6252;DHT22;3159;52.414;9.784;2023-02-28T14:52:35;9.30;99.90
6252;DHT22;3159;52.414;9.784;2023-02-28T14:55:10;9.90;99.90
6252;DHT22;3159;52.414;9.784;2023-02-28T14:57:53;10.00;99.90
6252;DHT22;3159;52.414;9.784;2023-02-28T15:00:26;10.50;99.90
6252;DHT22;3159;52.414;9.784;2023-02-28T15:03:00;9.60;99.90
6252;DHT22;3159;52.414;9.784;2023-02-28T15:05:32;10.00;99.90
6252;DHT22;3159;52.414;9.784;2023-02-28T15:08:12;10.00;99.90
6252;DHT22;3159;52.414;9.784;2023-02-28T15:10:43;9.80;99.90
6252;DHT22;3159;52.414;9.784;2023-02-28T15:13:13;9.50;99.90
6252;DHT22;3159;52.414;9.784;2023-02-28T15:15:45;8.50;99.90
6252;DHT22;3159;52.414;9.784;2023-02-28T15:18:30;8.30;99.90
6252;DHT22;3159;52.414;9.784;2023-02-28T15:24:18;9.00;99.90
6252;DHT22;3159;52.414;9.784;2023-02-28T15:26:53;9.10;99.90
6252;DHT22;3159;52.414;9.784;2023-02-28T15:29:34;9.10;99.90
6252;DHT22;3159;52.414;9.784;2023-02-28T15:32:15;9.10;99.90
6252;DHT22;3159;52.414;9.784;2023-02-28T15:37:38;9.20;99.90
6252;DHT22;3159;52.414;9.784;2023-02-28T15:40:12;8.80;99.90
6252;DHT22;3159;52.414;9.784;2023-02-28T15:42:39;8.90;99.90
6252;DHT22;3159;52.414;9.784;2023-02-28T15:45:29;8.80;99.90
6252;DHT22;3159;52.414;9.784;2023-02-28T15:48:01;7.90;99.90
6252;DHT22;3159;52.414;9.784;2023-02-28T15:50:28;7.80;99.90
6252;DHT22;3159;52.414;9.784;2023-02-28T15:52:56;7.00;99.90
6252;DHT22;3159;52.414;9.784;2023-02-28T15:55:26;6.70;99.90
6252;DHT22;3159;52.414;9.784;2023-02-28T15:57:55;6.60;99.90
6252;DHT22;3159;52.414;9.784;2023-02-28T16:00:26;6.80;99.90
6252;DHT22;3159;52.414;9.784;2023-02-28T16:02:53;6.60;99.90
6252;DHT22;3159;52.414;9.784;2023-02-28T16:05:24;6.60;99.90
6252;DHT22;3159;52.414;9.784;2023-02-28T16:07:56;6.80;99.90
6252;DHT22;3159;52.414;9.784;2023-02-28T16:10:24;6.80;99.90
6252;DHT22;3159;52.414;9.784;2023-02-28T16:12:53;6.80;99.90
6252;DHT22;3159;52.414;9.784;2023-02-28T16:15:23;6.90;99.90
6252;DHT22;3159;52.414;9.784;2023-02-28T16:17:52;6.90;99.90
6252;DHT22;3159;52.414;9.784;2023-02-28T16:20:22;6.70;99.90
6252;DHT22;3159;52.414;9.784;2023-02-28T16:22:49;6.40;99.90
6252;DHT22;3159;52.414;9.784;2023-02-28T16:25:17;6.50;99.90
6252;DHT22;3159;52.414;9.784;2023-02-28T16:27:46;6.60;99.90
6252;DHT22;3159;52.414;9.784;2023-02-28T16:30:19;6.80;99.90
6252;DHT22;3159;52.414;9.784;2023-02-28T16:32:46;6.60;99.90
6252;DHT22;3159;52.414;9.784;2023-02-28T16:35:13;6.50;99.90
6252;DHT22;3159;52.414;9.784;2023-02-28T16:37:41;6.50;99.90
6252;DHT22;3159;52.414;9.784;2023-02-28T16:40:13;6.40;99.90
6252;DHT22;3159;52.414;9.784;2023-02-28T16:42:40;6.40;99.90
6252;DHT22;3159;52.414;9.784;2023-02-28T16:45:15;6.30;99.90
6252;DHT22;3159;52.414;9.784;2023-02-28T16:47:43;6.40;99.90
6252;DHT22;3159;52.414;9.784;2023-02-28T16:50:14;6.50;99.90
6252;DHT22;3159;52.414;9.784;2023-02-28T16:52:42;6.30;99.90
6252;DHT22;3159;52.414;9.784;2023-02-28T16:55:10;6.20;99.90
6252;DHT22;3159;52.414;9.784;2023-02-28T16:57:37;6.10;99.90
6252;DHT22;3159;52.414;9.784;2023-02-28T17:00:07;6.20;99.90
6252;DHT22;3159;52.414;9.784;2023-02-28T17:02:34;6.20;99.90
6252;DHT22;3159;52.414;9.784;2023-02-28T17:05:01;6.10;99.90
6252;DHT22;3159;52.414;9.784;2023-02-28T17:07:27;6.20;99.90
6252;DHT22;3159;52.414;9.784;2023-02-28T17:09:56;6.20;99.90
6252;DHT22;3159;52.414;9.784;2023-02-28T17:12:22;6.00;99.90
6252;DHT22;3159;52.414;9.784;2023-02-28T17:14:49;6.10;99.90
6252;DHT22;3159;52.414;9.784;2023-02-28T17:17:18;6.10;99.90